Time;durP1;ratioP1;P1;durP2;ratioP2;P2;SDS_P1;SDS_P2;PMS_P1;PMS_P2;Temp;Humidity;BMP_temperature;BMP_pressure;BME280_temperature;BME280_humidity;BME280_pressure;Samples;Min_cycle;Max_cycle;Signal;HPM_P1;HPM_P2
2021/01/20 00:00:15;;;;;;;10.20;5.22;;;;;;;4.22;100.00;99915.38;10499270;28;20052;-73
2021/01/20 00:05:16;;;;;;;10.40;4.85;;;;;;;4.27;100.00;99919.53;10497851;28;20044;-72
2021/01/20 00:10:17;;;;;;;12.10;5.72;;;;;;;4.52;100.00;99925.72;10498151;28;20044;-72
2021/01/20 00:15:23;;;;;;;5.78;3.47;;;;;;;4.40;100.00;99893.97;10485812;28;20056;-72
2021/01/20 00:20:25;;;;;;;6.40;4.03;;;;;;;4.58;100.00;99922.09;10514137;28;20139;-73
2021/01/20 00:25:26;;;;;;;7.15;3.17;;;;;;;4.84;100.00;99923.88;10496684;28;20505;-72
2021/01/20 00:30:27;;;;;;;8.07;3.55;;;;;;;4.91;100.00;99914.94;10485312;28;20048;-72
2021/01/20 00:35:28;;;;;;;6.38;3.38;;;;;;;5.24;100.00;99898.19;10503659;28;20044;-72
2021/01/20 00:40:29;;;;;;;6.15;3.25;;;;;;;5.23;100.00;99867.75;10525977;28;20055;-72
2021/01/20 00:45:31;;;;;;;8.63;4.22;;;;;;;5.61;100.00;99868.16;10496772;28;20502;-72
2021/01/20 00:50:32;;;;;;;8.73;4.97;;;;;;;5.75;100.00;99844.16;10497753;28;20455;-72
2021/01/20 00:55:33;;;;;;;8.32;4.40;;;;;;;5.84;100.00;99828.97;10509873;28;20414;-72
2021/01/20 01:00:35;;;;;;;6.47;3.95;;;;;;;6.07;100.00;99822.91;10542533;28;20131;-72
2021/01/20 01:05:36;;;;;;;6.03;3.67;;;;;;;6.08;100.00;99816.78;10531920;28;20098;-72
2021/01/20 01:10:39;;;;;;;6.20;3.50;;;;;;;6.06;100.00;99800.28;10503677;28;20045;-72
2021/01/20 01:15:47;;;;;;;5.45;3.40;;;;;;;6.07;100.00;99802.00;10505332;28;20476;-72
2021/01/20 01:20:48;;;;;;;5.03;3.67;;;;;;;6.02;100.00;99783.88;10506099;28;20048;-72
2021/01/20 01:25:52;;;;;;;6.75;3.85;;;;;;;5.90;100.00;99773.03;10538430;28;20048;-72
2021/01/20 01:30:54;;;;;;;6.55;3.60;;;;;;;5.68;100.00;99754.69;10501958;28;20044;-72
2021/01/20 01:35:56;;;;;;;5.78;3.58;;;;;;;5.41;100.00;99730.44;10502484;28;20510;-72
2021/01/20 01:40:57;;;;;;;4.90;2.90;;;;;;;5.30;100.00;99730.81;10503124;28;20044;-73
2021/01/20 01:46:19;;;;;;;5.13;3.08;;;;;;;5.36;100.00;99734.13;10503360;28;20102;-72
2021/01/20 01:51:39;;;;;;;8.10;3.55;;;;;;;5.41;100.00;99730.44;10487770;28;20428;-72
2021/01/20 01:56:59;;;;;;;6.35;2.97;;;;;;;5.47;100.00;99717.13;10511813;28;20040;-72
2021/01/20 02:02:03;;;;;;;;;;;;;;;5.52;100.00;99724.81;10545011;28;20052;-72
2021/01/20 02:07:11;;;;;;;7.03;3.72;;;;;;;5.55;100.00;99716.84;10543307;28;19985;-73
2021/01/20 02:12:40;;;;;;;6.63;3.70;;;;;;;5.67;100.00;99714.63;10544237;28;20143;-72
2021/01/20 02:18:13;;;;;;;5.55;3.00;;;;;;;5.66;100.00;99699.88;10530376;28;20464;-72
2021/01/20 02:23:42;;;;;;;6.22;3.60;;;;;;;5.77;100.00;99689.00;10539909;28;20513;-72
2021/01/20 02:29:34;;;;;;;7.80;3.60;;;;;;;5.87;100.00;99692.06;10506912;28;20086;-72
2021/01/20 02:34:59;;;;;;;6.68;3.60;;;;;;;5.96;100.00;99686.50;10501228;28;20049;-72
2021/01/20 02:40:04;;;;;;;5.38;3.67;;;;;;;6.11;100.00;99683.28;10500164;28;20053;-72
2021/01/20 02:45:26;;;;;;;6.05;3.88;;;;;;;6.27;100.00;99684.38;10500639;28;20157;-73
2021/01/20 02:50:30;;;;;;;10.60;4.25;;;;;;;6.21;100.00;99679.38;10494784;28;20045;-72
2021/01/20 02:55:32;;;;;;;7.25;3.78;;;;;;;6.24;100.00;99683.63;10483973;28;20043;-72
2021/01/20 03:01:01;;;;;;;9.02;4.03;;;;;;;6.37;100.00;99682.19;10526077;28;20056;-72
2021/01/20 03:06:03;;;;;;;7.00;3.60;;;;;;;6.45;100.00;99687.97;10542427;28;20047;-72
2021/01/20 03:11:06;;;;;;;6.00;3.75;;;;;;;6.41;100.00;99678.56;10508792;28;20076;-72
2021/01/20 03:16:07;;;;;;;6.07;3.20;;;;;;;6.42;100.00;99673.25;10500898;28;20147;-72
2021/01/20 03:21:08;;;;;;;4.72;3.13;;;;;;;6.45;100.00;99664.41;10504539;28;20040;-72
2021/01/20 03:26:10;;;;;;;5.82;3.63;;;;;;;7.10;100.00;99716.56;10531768;28;20420;-72
2021/01/20 03:31:11;;;;;;;7.15;4.22;;;;;;;7.27;100.00;99702.69;10499283;28;20560;-72
2021/01/20 03:36:12;;;;;;;6.55;3.30;;;;;;;7.61;99.05;99696.75;10499693;28;20135;-72
2021/01/20 03:41:13;;;;;;;6.45;4.25;;;;;;;7.53;96.39;99672.69;10497203;28;20095;-72
2021/01/20 03:46:14;;;;;;;5.28;3.78;;;;;;;7.62;95.24;99674.84;10498592;28;20099;-72
2021/01/20 03:51:15;;;;;;;6.00;3.75;;;;;;;7.69;94.38;99662.31;10487387;28;20110;-72
2021/01/20 03:56:16;;;;;;;5.50;3.80;;;;;;;7.46;94.93;99648.50;10496234;28;20048;-72
2021/01/20 04:01:17;;;;;;;5.32;3.72;;;;;;;7.17;97.81;99647.25;10540470;28;20143;-72
2021/01/20 04:06:19;;;;;;;6.05;3.67;;;;;;;7.17;98.60;99628.06;10470241;28;20453;-72
2021/01/20 04:11:20;;;;;;;5.38;3.45;;;;;;;7.37;96.29;99635.84;10478487;28;20040;-72
2021/01/20 04:16:21;;;;;;;4.78;3.45;;;;;;;7.74;90.83;99637.56;10493243;28;20033;-72
2021/01/20 04:21:23;;;;;;;5.63;3.55;;;;;;;7.52;89.52;99601.06;10496619;28;20044;-72
2021/01/20 04:26:24;;;;;;;4.53;3.63;;;;;;;7.29;91.13;99590.81;10482460;28;20048;-72
2021/01/20 04:31:25;;;;;;;4.43;2.95;;;;;;;7.40;90.21;99603.41;10496428;28;20142;-72
2021/01/20 04:36:26;;;;;;;6.78;3.80;;;;;;;6.17;97.29;99536.59;10514844;28;20382;-72
2021/01/20 04:41:27;;;;;;;7.13;5.00;;;;;;;5.56;100.00;99531.31;10539277;28;20395;-72
2021/01/20 04:46:29;;;;;;;7.35;4.78;;;;;;;5.59;100.00;99538.19;10538908;28;20056;-72
2021/01/20 04:51:33;;;;;;;4.57;3.53;;;;;;;5.62;100.00;99559.78;10524581;28;20047;-72
2021/01/20 04:56:35;;;;;;;4.47;3.58;;;;;;;5.38;100.00;99555.56;10518666;28;20483;-72
2021/01/20 05:01:36;;;;;;;6.18;3.85;;;;;;;5.54;100.00;99572.31;10537917;28;20047;-72
2021/01/20 05:06:38;;;;;;;5.07;3.38;;;;;;;5.51;100.00;99567.22;10511131;28;20446;-72
2021/01/20 05:11:40;;;;;;;5.65;4.05;;;;;;;5.32;100.00;99561.03;10496206;28;20043;-72
2021/01/20 05:16:43;;;;;;;5.70;3.78;;;;;;;5.26;100.00;99550.84;10496645;28;20048;-72
2021/01/20 05:22:07;;;;;;;6.65;3.88;;;;;;;5.15;100.00;99551.25;10499919;28;20492;-72
2021/01/20 05:27:08;;;;;;;5.35;3.97;;;;;;;5.12;100.00;99553.13;10493889;28;20630;-72
2021/01/20 05:32:17;;;;;;;6.82;3.78;;;;;;;5.06;100.00;99551.59;10495973;28;20041;-72
2021/01/20 05:37:18;;;;;;;7.85;4.43;;;;;;;4.94;100.00;99550.31;10496351;28;20037;-73
2021/01/20 05:42:19;;;;;;;6.88;3.70;;;;;;;4.95;100.00;99546.78;10494959;28;20040;-72
2021/01/20 05:47:20;;;;;;;4.65;3.28;;;;;;;5.01;100.00;99544.88;10501379;28;20122;-72
2021/01/20 05:52:22;;;;;;;5.80;3.90;;;;;;;5.29;100.00;99568.97;10501110;28;20655;-72
2021/01/20 05:57:23;;;;;;;5.75;3.72;;;;;;;5.23;100.00;99558.78;10495925;28;20159;-72
2021/01/20 06:02:24;;;;;;;6.25;3.60;;;;;;;5.42;100.00;99582.41;10491937;28;20484;-72
2021/01/20 06:07:28;;;;;;;6.57;3.28;;;;;;;5.44;100.00;99576.19;10502744;28;20041;-72
2021/01/20 06:12:29;;;;;;;5.40;3.25;;;;;;;5.46;100.00;99558.72;10500898;28;20037;-72
2021/01/20 06:17:35;;;;;;;6.03;3.92;;;;;;;5.69;100.00;99579.53;10501003;28;20093;-72
2021/01/20 06:22:45;;;;;;;8.20;3.95;;;;;;;6.36;100.00;99613.34;10497220;28;20047;-72
2021/01/20 06:28:12;;;;;;;5.13;2.55;;;;;;;6.54;100.00;99603.84;10501072;28;20119;-72
2021/01/20 06:33:14;;;;;;;;;;;;;;;6.58;100.00;99594.09;10496907;28;20059;-71
2021/01/20 06:38:27;;;;;;;4.03;2.47;;;;;;;6.65;100.00;99587.69;10501452;28;19924;-72
2021/01/20 06:43:39;;;;;;;5.88;2.47;;;;;;;6.79;100.00;99582.66;10500526;28;20071;-72
2021/01/20 06:49:07;;;;;;;4.93;2.28;;;;;;;6.85;100.00;99558.84;10500746;28;20118;-72
2021/01/20 06:54:13;;;;;;;5.40;3.10;;;;;;;6.86;99.50;99550.91;10501749;28;20063;-72
2021/01/20 06:59:15;;;;;;;4.90;3.20;;;;;;;6.51;100.00;99525.50;10527905;28;20044;-72
2021/01/20 07:04:36;;;;;;;4.50;3.10;;;;;;;6.21;100.00;99505.91;10499306;28;20040;-72
2021/01/20 07:09:49;;;;;;;4.57;2.97;;;;;;;5.61;100.00;99473.63;10497439;28;20053;-71
2021/01/20 07:14:55;;;;;;;3.97;2.83;;;;;;;5.61;100.00;99494.53;10497813;28;20472;-70
2021/01/20 07:19:56;;;;;;;5.57;3.28;;;;;;;5.36;100.00;99499.09;10497233;28;20098;-70
2021/01/20 07:24:58;;;;;;;4.35;2.83;;;;;;;5.29;100.00;99503.69;10535469;28;20048;-71
2021/01/20 07:30:13;;;;;;;4.60;3.05;;;;;;;5.19;100.00;99502.38;10510728;28;20051;-71
2021/01/20 07:35:24;;;;;;;4.10;3.08;;;;;;;5.34;100.00;99528.72;10479135;28;20496;-71
2021/01/20 07:40:33;;;;;;;4.78;2.80;;;;;;;5.56;100.00;99551.34;10497873;28;20558;-71
2021/01/20 07:45:40;;;;;;;4.93;3.10;;;;;;;5.76;100.00;99569.69;10497439;28;20488;-72
2021/01/20 07:50:46;;;;;;;6.25;3.40;;;;;;;5.72;100.00;99549.81;10495505;28;20067;-72
2021/01/20 07:55:54;;;;;;;4.43;2.90;;;;;;;5.72;100.00;99548.06;10512872;28;20376;-72
2021/01/20 08:00:56;;;;;;;5.72;3.05;;;;;;;6.31;100.00;99588.31;10539391;28;20052;-71
2021/01/20 08:05:59;;;;;;;6.05;3.10;;;;;;;6.45;100.00;99573.69;10521465;28;20045;-71
2021/01/20 08:11:01;;;;;;;3.35;2.38;;;;;;;6.68;100.00;99571.84;10489716;28;20434;-71
2021/01/20 08:16:03;;;;;;;5.72;2.50;;;;;;;6.95;100.00;99562.72;10491876;28;20039;-71
2021/01/20 08:21:08;;;;;;;6.72;3.30;;;;;;;7.12;96.08;99548.84;10489093;28;20081;-72
2021/01/20 08:26:09;;;;;;;;;;;;;;;6.86;97.73;99529.97;10490164;28;20051;-71
2021/01/20 08:31:20;;;;;;;5.57;3.13;;;;;;;6.81;96.24;99529.34;10496548;28;20352;-72
2021/01/20 08:36:23;;;;;;;7.90;5.00;;;;;;;6.89;93.00;99510.66;10496349;28;20040;-70
2021/01/20 08:41:24;;;;;;;5.47;2.88;;;;;;;6.98;91.05;99504.13;10495838;28;20044;-71
2021/01/20 08:46:27;;;;;;;5.13;2.75;;;;;;;6.93;90.33;99480.81;10495497;28;20061;-71
2021/01/20 08:51:31;;;;;;;4.75;3.13;;;;;;;7.02;89.55;99492.59;10494628;28;20471;-70
2021/01/20 08:56:32;;;;;;;5.75;3.42;;;;;;;7.06;87.79;99484.53;10517413;28;20148;-71
2021/01/20 09:01:43;;;;;;;5.30;2.90;;;;;;;6.64;93.08;99465.59;10537177;28;20063;-71
2021/01/20 09:06:45;;;;;;;5.50;3.38;;;;;;;6.44;97.17;99449.03;10523765;28;20094;-71
2021/01/20 09:11:46;;;;;;;4.40;3.15;;;;;;;6.64;93.74;99461.22;10532639;28;20055;-71
2021/01/20 09:16:47;;;;;;;5.03;3.15;;;;;;;6.66;92.39;99438.44;10498992;28;20090;-71
2021/01/20 09:21:48;;;;;;;5.07;3.03;;;;;;;6.73;90.57;99460.78;10508725;28;20047;-72
2021/01/20 09:26:49;;;;;;;5.85;3.40;;;;;;;6.75;88.58;99439.78;10546679;28;20051;-71
2021/01/20 09:31:50;;;;;;;5.35;3.10;;;;;;;6.63;88.65;99411.56;10502710;28;20048;-70
2021/01/20 09:36:51;;;;;;;5.10;3.13;;;;;;;6.76;87.25;99424.00;10503087;28;20484;-72
2021/01/20 09:41:53;;;;;;;5.22;3.17;;;;;;;6.73;85.93;99399.72;10504051;28;20055;-71
2021/01/20 09:46:54;;;;;;;4.38;2.88;;;;;;;6.77;84.97;99382.97;10502575;28;20051;-72
2021/01/20 09:51:56;;;;;;;5.38;3.30;;;;;;;6.97;83.56;99400.31;10502809;28;20044;-71
2021/01/20 09:57:03;;;;;;;4.82;3.10;;;;;;;6.84;84.14;99376.53;10528588;28;20036;-71
2021/01/20 10:02:05;;;;;;;5.50;3.42;;;;;;;7.00;83.18;99393.19;10520539;28;20056;-72
2021/01/20 10:07:06;;;;;;;6.53;4.00;;;;;;;7.09;82.31;99413.69;10502055;28;20040;-72
2021/01/20 10:12:09;;;;;;;6.30;4.20;;;;;;;7.48;80.78;99434.41;10501599;28;20044;-72
2021/01/20 10:17:10;;;;;;;9.90;4.20;;;;;;;7.52;79.27;99419.41;10502020;28;20066;-71
2021/01/20 10:22:12;;;;;;;6.60;3.70;;;;;;;7.68;78.60;99433.41;10515216;28;20377;-71
2021/01/20 10:27:13;;;;;;;5.47;3.67;;;;;;;8.21;76.69;99469.94;10540078;28;20719;-71
2021/01/20 10:32:14;;;;;;;6.53;3.92;;;;;;;8.34;75.80;99433.44;10500482;28;20041;-71
2021/01/20 10:37:15;;;;;;;5.90;3.92;;;;;;;8.15;74.14;99388.09;10501223;28;20123;-71
2021/01/20 10:42:17;;;;;;;5.88;3.78;;;;;;;8.36;73.21;99363.38;10501206;28;20040;-71
2021/01/20 10:47:18;;;;;;;5.97;4.00;;;;;;;8.21;74.75;99340.53;10500553;28;20057;-71
2021/01/20 10:52:19;;;;;;;5.65;3.60;;;;;;;7.91;75.88;99309.81;10500146;28;20068;-72
2021/01/20 10:57:20;;;;;;;5.68;3.60;;;;;;;7.85;76.50;99314.56;10498595;28;20047;-71
2021/01/20 11:02:21;;;;;;;5.95;3.25;;;;;;;7.81;78.32;99308.63;10498170;28;20442;-72
2021/01/20 11:07:22;;;;;;;5.80;3.05;;;;;;;7.86;78.42;99321.50;10499134;28;20044;-72
2021/01/20 11:12:24;;;;;;;4.93;3.45;;;;;;;7.82;78.81;99315.56;10498884;28;20097;-72
2021/01/20 11:17:26;;;;;;;5.65;3.10;;;;;;;7.86;78.50;99331.97;10499586;28;20036;-72
2021/01/20 11:22:27;;;;;;;5.13;3.10;;;;;;;7.92;78.27;99332.50;10511978;28;20047;-71
2021/01/20 11:27:28;;;;;;;4.57;3.40;;;;;;;7.94;78.85;99340.28;10536043;28;20041;-71
2021/01/20 11:32:29;;;;;;;6.38;3.22;;;;;;;7.83;81.65;99335.59;10499967;28;20047;-72
2021/01/20 11:37:31;;;;;;;4.70;3.50;;;;;;;7.65;84.06;99328.72;10499056;28;20120;-71
2021/01/20 11:42:33;;;;;;;5.57;3.42;;;;;;;7.58;85.21;99324.72;10498207;28;20480;-72
2021/01/20 11:47:37;;;;;;;5.55;3.58;;;;;;;7.70;82.59;99326.69;10499104;28;20080;-71
2021/01/20 11:52:38;;;;;;;4.93;3.25;;;;;;;7.75;81.50;99318.59;10471819;28;20056;-72
2021/01/20 11:57:40;;;;;;;5.90;3.22;;;;;;;7.78;81.81;99308.81;10492320;28;20045;-72
2021/01/20 12:02:41;;;;;;;6.22;2.85;;;;;;;7.69;85.05;99311.91;10487819;28;20044;-72
2021/01/20 12:07:44;;;;;;;4.93;3.17;;;;;;;7.75;87.81;99336.94;10496886;28;20057;-71
2021/01/20 12:12:46;;;;;;;4.90;3.20;;;;;;;7.81;86.73;99316.47;10498108;28;20040;-72
2021/01/20 12:17:47;;;;;;;6.85;3.53;;;;;;;8.18;82.20;99336.34;10496679;28;20060;-72
2021/01/20 12:22:48;;;;;;;4.85;3.08;;;;;;;8.25;79.74;99306.19;10515617;28;20499;-71
2021/01/20 12:27:49;;;;;;;6.78;3.13;;;;;;;8.23;79.13;99289.69;10512150;28;20480;-71
2021/01/20 12:32:50;;;;;;;5.20;3.03;;;;;;;8.05;81.63;99266.25;10491841;28;20511;-72
2021/01/20 12:37:52;;;;;;;5.10;3.38;;;;;;;8.09;83.22;99265.16;10495763;28;20048;-71
2021/01/20 12:42:53;;;;;;;6.93;3.55;;;;;;;8.03;84.89;99260.25;10509800;28;20545;-72
2021/01/20 12:47:54;;;;;;;6.85;3.50;;;;;;;7.99;88.79;99278.78;10492105;28;20056;-72
2021/01/20 12:52:56;;;;;;;5.82;3.50;;;;;;;7.50;97.25;99237.81;10508832;28;20052;-72
2021/01/20 12:57:57;;;;;;;6.22;3.80;;;;;;;7.51;100.00;99247.38;10508211;28;20055;-72
2021/01/20 13:02:58;;;;;;;4.72;3.10;;;;;;;8.15;88.45;99293.66;10520825;28;20044;-72
2021/01/20 13:07:59;;;;;;;6.80;3.83;;;;;;;8.60;79.80;99275.38;10522095;28;20044;-72
2021/01/20 13:13:01;;;;;;;5.63;3.30;;;;;;;8.40;81.72;99227.56;10523792;28;20040;-72
2021/01/20 13:18:02;;;;;;;6.22;3.47;;;;;;;7.96;86.84;99205.50;10512055;28;20400;-72
2021/01/20 13:23:03;;;;;;;7.38;3.30;;;;;;;8.20;83.06;99215.56;10519480;28;20051;-71
2021/01/20 13:28:04;;;;;;;5.55;2.72;;;;;;;8.11;82.57;99205.59;10511220;28;20044;-70
2021/01/20 13:33:06;;;;;;;7.22;3.55;;;;;;;8.09;82.07;99183.84;10511092;28;20426;-72
2021/01/20 13:38:07;;;;;;;5.13;3.70;;;;;;;7.73;86.65;99164.00;10507585;28;20037;-72
2021/01/20 13:43:08;;;;;;;7.22;4.43;;;;;;;7.34;94.63;99168.81;10508674;28;20093;-70
2021/01/20 13:48:09;;;;;;;7.55;4.28;;;;;;;7.30;96.32;99177.75;10506764;28;20056;-71
2021/01/20 13:53:11;;;;;;;7.30;4.97;;;;;;;7.37;94.73;99185.19;10506129;28;20381;-71
2021/01/20 13:58:12;;;;;;;6.38;4.70;;;;;;;7.41;93.80;99183.28;10511965;28;20150;-72
2021/01/20 14:03:13;;;;;;;7.82;4.72;;;;;;;7.45;93.04;99176.91;10506306;28;20040;-71
2021/01/20 14:08:14;;;;;;;7.32;4.18;;;;;;;7.38;92.76;99170.31;10500367;28;20048;-72
2021/01/20 14:13:16;;;;;;;7.50;4.75;;;;;;;7.51;90.54;99176.63;10500308;28;20056;-71
2021/01/20 14:18:17;;;;;;;7.78;5.47;;;;;;;7.46;90.85;99178.63;10499988;28;20041;-72
2021/01/20 14:23:18;;;;;;;9.20;5.20;;;;;;;7.22;94.95;99158.06;10501488;28;20131;-71
2021/01/20 14:28:19;;;;;;;7.40;4.85;;;;;;;7.38;93.71;99173.78;10502849;28;20734;-72
2021/01/20 14:33:20;;;;;;;10.15;5.35;;;;;;;7.15;96.45;99151.47;10514479;28;20048;-73
2021/01/20 14:38:22;;;;;;;8.45;4.55;;;;;;;7.20;97.28;99166.91;10542519;28;20044;-73
2021/01/20 14:43:23;;;;;;;9.75;5.72;;;;;;;7.31;95.23;99174.22;10540815;28;20481;-74
2021/01/20 14:48:24;;;;;;;7.78;5.28;;;;;;;7.36;94.37;99174.84;10502106;28;20064;-74
2021/01/20 14:53:25;;;;;;;8.65;5.07;;;;;;;7.33;94.51;99159.25;10497671;28;20411;-75
2021/01/20 14:58:26;;;;;;;8.35;5.72;;;;;;;7.31;94.81;99161.13;10506066;28;20048;-74
2021/01/20 15:03:27;;;;;;;7.63;5.38;;;;;;;7.21;96.65;99168.63;10499766;28;20511;-73
2021/01/20 15:08:29;;;;;;;8.35;5.03;;;;;;;7.33;95.99;99175.84;10500227;28;20048;-75
2021/01/20 15:13:30;;;;;;;7.70;4.80;;;;;;;7.24;97.10;99160.59;10527968;28;20043;-74
2021/01/20 15:18:31;;;;;;;10.88;5.53;;;;;;;7.11;98.27;99141.25;10500105;28;20041;-74
2021/01/20 15:23:32;;;;;;;9.68;5.57;;;;;;;7.11;99.16;99139.44;10475405;28;20052;-75
2021/01/20 15:28:35;;;;;;;11.93;4.75;;;;;;;7.08;99.96;99147.50;10496828;28;20044;-72
2021/01/20 15:33:36;;;;;;;7.80;4.90;;;;;;;7.10;100.00;99155.28;10499077;28;20090;-74
2021/01/20 15:38:39;;;;;;;10.77;5.45;;;;;;;7.10;100.00;99155.28;10491918;28;20044;-75
2021/01/20 15:43:41;;;;;;;7.82;4.65;;;;;;;7.02;100.00;99142.59;10479462;28;20060;-72
2021/01/20 15:48:42;;;;;;;8.35;4.78;;;;;;;7.02;100.00;99153.06;10491244;28;20053;-72
2021/01/20 15:53:44;;;;;;;7.97;5.15;;;;;;;7.03;100.00;99148.66;10480950;28;20094;-72
2021/01/20 15:58:45;;;;;;;10.90;5.53;;;;;;;6.95;100.00;99156.06;10476534;28;20411;-73
2021/01/20 16:03:46;;;;;;;12.00;5.80;;;;;;;7.03;100.00;99167.00;10496383;28;20507;-72
2021/01/20 16:08:50;;;;;;;11.20;5.55;;;;;;;7.05;100.00;99159.88;10499330;28;20044;-72
2021/01/20 16:13:51;;;;;;;10.07;5.20;;;;;;;7.07;100.00;99151.03;10497842;28;20036;-73
2021/01/20 16:18:52;;;;;;;11.13;5.47;;;;;;;7.17;100.00;99138.28;10499427;28;20388;-72
2021/01/20 16:23:53;;;;;;;10.95;5.45;;;;;;;7.19;100.00;99139.06;10513188;28;20037;-73
2021/01/20 16:28:55;;;;;;;5.80;4.00;;;;;;;7.20;100.00;99138.97;10497640;28;20048;-72
2021/01/20 16:33:56;;;;;;;8.80;4.47;;;;;;;7.07;100.00;99127.47;10498120;28;20093;-73
2021/01/20 16:38:57;;;;;;;10.00;5.68;;;;;;;7.05;100.00;99124.06;10496981;28;20132;-73
2021/01/20 16:43:58;;;;;;;7.88;4.63;;;;;;;6.99;100.00;99123.56;10482889;28;20401;-73
2021/01/20 16:48:59;;;;;;;6.97;5.10;;;;;;;7.01;100.00;99126.97;10456077;28;20084;-72
2021/01/20 16:54:01;;;;;;;8.40;4.97;;;;;;;7.09;100.00;99119.53;10463262;28;20488;-72
2021/01/20 16:59:02;;;;;;;9.65;5.72;;;;;;;6.98;100.00;99106.16;10539302;28;20587;-72
2021/01/20 17:04:03;;;;;;;9.90;5.90;;;;;;;7.08;100.00;99113.44;10491187;28;20037;-72
2021/01/20 17:09:05;;;;;;;8.55;5.95;;;;;;;6.98;100.00;99096.53;10492868;28;20037;-72
2021/01/20 17:14:08;;;;;;;9.38;5.25;;;;;;;7.02;100.00;99111.16;10493290;28;20373;-73
2021/01/20 17:19:09;;;;;;;8.80;5.40;;;;;;;7.07;100.00;99121.38;10489741;28;20060;-73
2021/01/20 17:24:11;;;;;;;10.70;4.60;;;;;;;7.12;100.00;99133.28;10492370;28;20041;-73
2021/01/20 17:29:12;;;;;;;9.02;5.18;;;;;;;7.08;100.00;99136.16;10489089;28;20507;-72
2021/01/20 17:34:13;;;;;;;7.88;4.55;;;;;;;7.12;100.00;99121.97;10483744;28;20040;-72
2021/01/20 17:39:14;;;;;;;8.85;5.65;;;;;;;7.17;100.00;99133.91;10493763;28;20048;-72
2021/01/20 17:44:15;;;;;;;10.70;5.97;;;;;;;7.19;100.00;99111.09;10502197;28;20063;-72
2021/01/20 17:49:16;;;;;;;10.18;5.10;;;;;;;7.35;100.00;99132.06;10504233;28;20057;-72
2021/01/20 17:54:18;;;;;;;9.50;5.40;;;;;;;7.47;100.00;99130.53;10502714;28;20052;-72
2021/01/20 17:59:19;;;;;;;8.02;4.55;;;;;;;7.38;100.00;99117.94;10482608;28;20102;-72
2021/01/20 18:04:20;;;;;;;11.38;5.70;;;;;;;7.41;100.00;99107.28;10502971;28;20407;-72
2021/01/20 18:09:22;;;;;;;10.30;5.55;;;;;;;7.50;100.00;99119.88;10500832;28;20041;-72
2021/01/20 18:14:23;;;;;;;14.82;6.00;;;;;;;7.29;100.00;99106.19;10502993;28;20051;-72
2021/01/20 18:19:24;;;;;;;7.88;4.93;;;;;;;7.12;100.00;99094.00;10502553;28;20485;-72
2021/01/20 18:24:25;;;;;;;8.52;5.30;;;;;;;6.92;100.00;99072.47;10500962;28;20075;-72
2021/01/20 18:29:26;;;;;;;8.75;5.25;;;;;;;6.89;100.00;99083.94;10487540;28;20041;-72
2021/01/20 18:34:28;;;;;;;7.45;4.97;;;;;;;6.88;100.00;99089.25;10475665;28;20095;-72
2021/01/20 18:39:29;;;;;;;8.32;4.45;;;;;;;6.88;100.00;99089.25;10493232;28;20048;-72
2021/01/20 18:44:30;;;;;;;8.35;5.57;;;;;;;6.73;100.00;99073.44;10495934;28;20056;-72
2021/01/20 18:49:32;;;;;;;8.68;5.60;;;;;;;6.94;100.00;99109.88;10493316;28;20056;-72
2021/01/20 18:54:33;;;;;;;11.32;5.45;;;;;;;6.89;100.00;99104.03;10495467;28;20048;-72
2021/01/20 18:59:34;;;;;;;8.38;4.50;;;;;;;7.16;100.00;99119.13;10499653;28;20050;-72
2021/01/20 19:04:35;;;;;;;11.60;5.40;;;;;;;7.15;100.00;99120.03;10470516;28;20870;-72
2021/01/20 19:09:36;;;;;;;7.28;4.82;;;;;;;7.36;100.00;99128.53;10466242;28;20052;-72
2021/01/20 19:14:38;;;;;;;8.13;4.32;;;;;;;7.34;100.00;99106.78;10462364;28;20047;-72
2021/01/20 19:19:39;;;;;;;8.68;5.45;;;;;;;7.39;100.00;99093.44;10499726;28;20067;-72
2021/01/20 19:24:40;;;;;;;8.85;5.22;;;;;;;7.17;100.00;99065.81;10493603;28;20048;-72
2021/01/20 19:29:41;;;;;;;8.93;5.03;;;;;;;7.11;100.00;99050.41;10476256;28;20086;-72
2021/01/20 19:34:43;;;;;;;8.73;4.65;;;;;;;7.34;100.00;99074.50;10467823;28;20489;-72
2021/01/20 19:39:44;;;;;;;8.38;4.47;;;;;;;7.50;100.00;99078.81;10484557;28;20476;-72
2021/01/20 19:44:45;;;;;;;7.45;4.85;;;;;;;7.29;100.00;99053.78;10495000;28;20051;-72
2021/01/20 19:49:46;;;;;;;7.97;5.53;;;;;;;7.19;100.00;99044.78;10497754;28;20060;-72
2021/01/20 19:54:47;;;;;;;6.93;3.38;;;;;;;7.46;100.00;99061.56;10496210;28;20052;-71
2021/01/20 19:59:48;;;;;;;5.60;3.03;;;;;;;8.88;100.00;99117.03;10497790;28;20060;-72
2021/01/20 20:04:49;;;;;;;9.02;3.10;;;;;;;9.21;100.00;99121.13;10491233;28;20071;-72
2021/01/20 20:09:50;;;;;;;6.97;2.63;;;;;;;9.01;100.00;99046.22;10458684;28;20045;-72
2021/01/20 20:14:51;;;;;;;9.07;4.32;;;;;;;9.06;99.73;99010.81;10472097;28;20377;-72
2021/01/20 20:19:53;;;;;;;6.85;3.53;;;;;;;9.23;97.99;99004.50;10497544;28;20041;-72
2021/01/20 20:24:54;;;;;;;6.72;3.22;;;;;;;9.30;96.28;99010.19;10497409;28;20471;-72
2021/01/20 20:29:56;;;;;;;6.63;3.75;;;;;;;9.33;96.49;99002.13;10496208;28;20059;-72
2021/01/20 20:34:57;;;;;;;7.47;3.20;;;;;;;9.47;95.14;98986.28;10476119;28;20083;-72
2021/01/20 20:39:59;;;;;;;17.75;9.85;;;;;;;9.27;95.83;98944.72;10492614;28;20158;-72
2021/01/20 20:45:00;;;;;;;8.85;4.28;;;;;;;9.23;96.83;98938.81;10497016;28;20037;-72
2021/01/20 20:50:02;;;;;;;7.75;4.22;;;;;;;9.37;96.18;98958.94;10498199;28;20052;-72
2021/01/20 20:55:04;;;;;;;6.72;4.47;;;;;;;9.41;95.00;98927.09;10512952;28;20052;-72
2021/01/20 21:00:07;;;;;;;10.82;4.43;;;;;;;9.37;95.18;98903.75;10496774;28;20541;-72
2021/01/20 21:05:08;;;;;;;8.50;4.07;;;;;;;9.37;95.59;98899.31;10497101;28;20044;-72
2021/01/20 21:10:09;;;;;;;7.68;3.78;;;;;;;9.39;95.31;98889.53;10505911;28;20040;-72
2021/01/20 21:15:11;;;;;;;5.78;3.08;;;;;;;9.31;95.52;98875.22;10509138;28;20392;-72
2021/01/20 21:20:12;;;;;;;7.82;2.95;;;;;;;9.43;94.57;98887.56;10474587;28;20037;-72
2021/01/20 21:25:13;;;;;;;6.10;3.05;;;;;;;9.37;94.68;98865.16;10505071;28;20120;-72
2021/01/20 21:30:15;;;;;;;5.45;2.80;;;;;;;9.36;94.64;98881.88;10505174;28;20045;-72
2021/01/20 21:35:16;;;;;;;7.95;3.58;;;;;;;9.49;94.30;98885.38;10505019;28;20048;-72
2021/01/20 21:40:17;;;;;;;4.30;2.33;;;;;;;9.59;92.21;98875.06;10504031;28;20037;-72
2021/01/20 21:45:19;;;;;;;6.35;2.30;;;;;;;9.59;92.00;98850.56;10500995;28;20501;-72
2021/01/20 21:50:20;;;;;;;4.82;2.22;;;;;;;9.57;91.46;98850.66;10501279;28;20050;-72
2021/01/20 21:55:21;;;;;;;4.60;2.22;;;;;;;9.62;90.93;98839.84;10464807;28;20051;-72
2021/01/20 22:00:22;;;;;;;7.78;2.58;;;;;;;9.63;90.17;98816.06;10504276;28;20041;-72
2021/01/20 22:05:28;;;;;;;5.63;2.10;;;;;;;9.58;90.93;98817.34;10503583;28;20048;-72
2021/01/20 22:10:29;;;;;;;4.97;2.60;;;;;;;9.72;90.43;98830.38;10514454;28;20044;-72
2021/01/20 22:15:30;;;;;;;5.93;2.78;;;;;;;9.73;89.77;98824.16;10500319;28;20045;-72
2021/01/20 22:20:31;;;;;;;5.68;2.58;;;;;;;9.71;89.44;98826.03;10471917;28;20368;-72
2021/01/20 22:25:32;;;;;;;4.03;1.95;;;;;;;9.67;89.28;98804.41;10501976;28;20048;-72
2021/01/20 22:30:33;;;;;;;4.47;2.22;;;;;;;9.58;90.30;98810.28;10501164;28;20114;-72
2021/01/20 22:35:34;;;;;;;4.32;2.40;;;;;;;9.56;90.14;98792.94;10499709;28;20036;-72
2021/01/20 22:40:36;;;;;;;6.03;2.28;;;;;;;9.51;90.55;98774.84;10482982;28;20051;-72
2021/01/20 22:45:37;;;;;;;4.72;2.45;;;;;;;9.52;90.02;98761.63;10499244;28;20044;-72
2021/01/20 22:50:38;;;;;;;8.60;2.65;;;;;;;9.55;89.92;98755.28;10499753;28;20051;-72
2021/01/20 22:55:39;;;;;;;10.57;4.35;;;;;;;9.58;88.93;98736.69;10501447;28;20048;-72
2021/01/20 23:00:40;;;;;;;8.52;3.70;;;;;;;9.70;88.01;98741.09;10501602;28;20039;-72
2021/01/20 23:05:41;;;;;;;13.15;4.97;;;;;;;9.66;88.25;98728.25;10501477;28;20043;-72
2021/01/20 23:10:42;;;;;;;14.98;7.10;;;;;;;9.73;87.74;98737.38;10511879;28;20051;-72
2021/01/20 23:15:44;;;;;;;35.38;14.82;;;;;;;9.64;87.88;98711.75;10540932;28;20090;-72
2021/01/20 23:20:45;;;;;;;29.85;12.30;;;;;;;9.53;88.35;98688.84;10500203;28;20051;-72
2021/01/20 23:25:46;;;;;;;14.43;6.15;;;;;;;9.79;86.78;98715.94;10489284;28;20503;-72
2021/01/20 23:30:47;;;;;;;7.97;3.70;;;;;;;9.65;87.20;98666.94;10486983;28;20057;-72
2021/01/20 23:35:48;;;;;;;9.73;3.40;;;;;;;9.83;86.36;98670.03;10471851;28;20044;-72